• Join FlightAware (Why Join?)
  • Login
  • US Flag 
Gobble Gobble! 
03:24AM EST


 

Airport Tracker/Info


-or-


 

Live Flight TrackerFlight Track Log ✈ DAL2033 ✈ 12-May-2013 ✈ KATL - KALB

Flight Track Log - Related Links

Times and Time Zones

All times are in EDT time to prevent confusion due to time zone crossing. See the DAL2033 flight status page for this flight to view local times or setup timezone preferences in your user account.

Time Position Orientation Groundspeed Altitude Reporting Facility
EDT Latitude Longitude Course Direction KTS MPH feet Rate Location/Type
03:30PM 33.6556 -84.4906 North 441 507 3,000  Level Atlanta Center
03:31PM 33.6833 -84.5333 308° West 253 291 4,500 2,520 Climbing Atlanta TRACON
03:32PM 33.8636 -84.1969 320° Northwest  Level FlightAware Approximate
03:33PM 33.9771 -84.2667 North  Level FlightAware Approximate
03:33PM 33.8000 -84.5833 340° North 277 319 9,700  Level Atlanta TRACON
03:34PM 34.1116 -84.2667 North  Level FlightAware Approximate
03:34PM 33.8894 -84.4692 47° Northeast 335 386 11,500  Level Atlanta Center
03:35PM 34.2460 -84.2667 North  Level FlightAware Approximate
03:35PM 33.9794 -84.3894 36° Northeast 379 436 13,300  Level Atlanta Center
03:36PM 34.0819 -84.3547 16° North 383 441 15,600 1,980 Climbing Atlanta Center
03:37PM 34.1906 -84.3175 16° North 408 470 17,300 1,680 Climbing Atlanta Center
03:38PM 34.3075 -84.2803 15° North 429 494 19,000 1,620 Climbing Atlanta Center
03:39PM 34.4286 -84.2503 12° North 434 499 20,600 960 Climbing Atlanta Center
03:40PM 34.5558 -84.2203 11° North 444 511 21,000 180 Climbing Atlanta Center
03:41PM 34.6792 -84.1928 10° North 456 525 21,000 720 Level Atlanta Center
03:42PM 34.8044 -84.1628 11° North 450 518 22,500 1,200 Climbing Atlanta Center
03:43PM 34.9317 -84.1325 11° North 450 518 23,500 1,080 Climbing Atlanta Center
03:44PM 35.0631 -84.0997 12° North 461 531 24,700 1,200 Climbing Atlanta Center
03:45PM 35.1925 -84.0692 11° North 466 536 26,000 1,380 Climbing Atlanta Center
03:46PM 35.3239 -84.0361 12° North 471 542 27,500 960 Climbing Atlanta Center
03:47PM 35.4511 -84.0081 10° North 471 542 28,000 720 Climbing Atlanta Center
03:48PM 35.5847 -83.9750 11° North 471 542 29,000 1,440 Climbing Atlanta Center
03:49PM 35.7100 -83.9442 11° North 466 536 30,900 1,200 Climbing Atlanta Center
03:50PM 35.8372 -83.9106 12° North 460 529 31,500 540 Climbing Atlanta Center
03:51PM 35.9581 -83.8617 18° North 460 529 32,000 600 Climbing Atlanta Center
03:52PM 36.0808 -83.7844 27° Northeast 471 542 32,700 360 Climbing Atlanta Center
03:54PM 36.2697 -83.6606 28° Northeast 484 557 33,000 60 Climbing Indianapolis Center
03:55PM 36.3908 -83.5847 27° Northeast 486 559 33,000  Level Indianapolis Center
03:56PM 36.5192 -83.5025 27° Northeast 482 555 33,000  Level Indianapolis Center
03:57PM 36.6383 -83.4244 28° Northeast 481 554 33,000  Level Indianapolis Center
03:58PM 36.7486 -83.3206 37° Northeast 492 566 33,000  Level Indianapolis Center
03:59PM 36.8603 -83.2150 37° Northeast 499 574 33,000  Level Indianapolis Center
04:00PM 36.9764 -83.1231 32° Northeast 489 563 33,000  Level Indianapolis Center
04:01PM 37.1000 -83.0558 23° Northeast 478 550 33,000  Level Indianapolis Center
04:02PM 37.2431 -82.9775 24° Northeast 476 548 33,000  Level Indianapolis Center
04:03PM 37.3636 -82.9072 25° Northeast 479 551 33,000  Level Indianapolis Center
04:04PM 37.4703 -82.7914 41° Northeast 511 588 33,000  Level Indianapolis Center
04:05PM 37.5725 -82.6636 45° Northeast 517 595 33,000  Level Indianapolis Center
04:06PM 37.6750 -82.5389 44° Northeast 513 590 33,000  Level Indianapolis Center
04:07PM 37.7758 -82.4094 45° Northeast 516 594 33,000  Level Indianapolis Center
04:08PM 37.8775 -82.2839 44° Northeast 510 587 33,000  Level Indianapolis Center
04:09PM 37.9950 -82.1364 45° Northeast 515 593 33,000  Level Indianapolis Center
04:10PM 38.0950 -82.0081 45° Northeast 513 590 33,000  Level Indianapolis Center
04:11PM 38.1961 -81.8781 45° Northeast 516 594 33,000  Level Indianapolis Center
04:12PM 38.2969 -81.7478 45° Northeast 517 595 33,000  Level Indianapolis Center
04:13PM 38.3981 -81.6150 46° Northeast 523 602 33,000  Level Indianapolis Center
04:14PM 38.4992 -81.4850 45° Northeast 521 600 33,000  Level Indianapolis Center
04:15PM 38.6200 -81.3294 45° Northeast 526 605 33,000  Level Indianapolis Center
04:16PM 38.7203 -81.1997 45° Northeast 521 600 33,000  Level Indianapolis Center
04:17PM 38.8214 -81.0667 46° Northeast 523 602 33,000  Level Indianapolis Center
04:18PM 38.9244 -80.9319 45° Northeast 528 608 33,000  Level Indianapolis Center
04:19PM 39.0258 -80.7978 46° Northeast 526 605 33,000  Level Indianapolis Center
04:20PM 39.1453 -80.6300 47° Northeast 527 606 33,000  Level Indianapolis Center
04:21PM 39.2444 -80.4892 48° Northeast 531 611 33,000  Level Indianapolis Center
04:22PM 39.3442 -80.3506 47° Northeast 527 606 33,000  Level Indianapolis Center
04:23PM 39.4517 -80.2067 46° Northeast 525 604 33,000  Level Cleveland Center
04:24PM 39.5511 -80.0636 48° Northeast 525 604 33,000  Level Cleveland Center
04:25PM 39.6503 -79.9144 49° Northeast 530 610 33,000  Level Cleveland Center
04:26PM 39.7475 -79.7731 48° Northeast 530 610 33,000  Level Cleveland Center
04:27PM 39.8444 -79.6314 48° Northeast 524 603 33,000  Level Cleveland Center
04:28PM 39.9411 -79.4892 48° Northeast 519 597 33,000  Level Cleveland Center
04:29PM 40.0356 -79.3439 50° Northeast 519 597 33,000  Level Cleveland Center
04:30PM 40.1297 -79.2008 49° Northeast 514 592 33,000  Level Cleveland Center
04:31PM 40.2236 -79.0575 49° Northeast 514 592 33,000  Level Cleveland Center
04:32PM 40.3178 -78.9167 49° Northeast 514 592 33,000  Level Cleveland Center
04:33PM 40.4133 -78.7697 49° Northeast 520 598 33,000  Level Cleveland Center
04:34PM 40.5069 -78.6253 50° Northeast 520 598 33,000  Level Cleveland Center
04:37PM 40.7244 -78.2911 49° Northeast 525 604 33,000  Level New York Center
04:38PM 40.8078 -78.1631 49° Northeast 525 604 33,000  Level New York Center
04:39PM 40.8725 -78.0575 51° Northeast 525 604 33,000  Level New York Center
04:40PM 41.0075 -77.8603 48° Northeast 464 534 33,000  Level New York Center
04:41PM 41.1056 -77.7189 47° Northeast 495 570 33,000  Level New York Center
04:42PM 41.2036 -77.5744 48° Northeast 516 594 33,000 -660 Level New York Center
04:43PM 41.2992 -77.4322 48° Northeast 516 594 31,700 -1,140 Descending New York Center
04:44PM 41.3967 -77.2897 48° Northeast 516 594 30,800 -900 Descending New York Center
04:45PM 41.4869 -77.1600 47° Northeast 516 594 30,000 -960 Descending New York Center
04:46PM 41.5822 -77.0164 48° Northeast 522 601 29,000 -540 Descending New York Center
04:47PM 41.6839 -76.8619 49° Northeast 527 606 29,000  Level New York Center
04:48PM 41.7853 -76.7100 48° Northeast 541 623 29,000  Level New York Center
04:49PM 41.8864 -76.5572 48° Northeast 546 628 29,000 -1,080 Level New York Center
04:51PM 42.1036 -76.2267 48° Northeast 553 636 25,600 -1,620 Descending Boston Center
04:52PM 42.1861 -76.0661 55° Northeast 539 620 24,000 -840 Descending Boston Center
04:53PM 42.2456 -75.8956 65° Northeast 507 583 24,000  Level Boston Center
04:54PM 42.3047 -75.7306 64° Northeast 492 566 24,000 -60 Level Boston Center
04:55PM 42.3597 -75.5564 67° East 492 566 23,900 -60 Descending Boston Center
04:56PM 42.3833 -75.3747 80° East 477 549 23,900  Level Boston Center
04:57PM 42.4044 -75.1986 81° East 477 549 24,000  Climbing Boston Center
04:58PM 42.4233 -75.0192 82° East 482 555 24,000 -720 Level Boston Center
04:58PM 42.4378 -74.9214 79° East 491 565 23,000 -2,100 Descending Boston Center
04:59PM 42.4458 -74.8403 82° East 487 560 21,900 -2,640 Descending Boston Center
04:59PM 42.4558 -74.7617 80° East 480 552 20,600 -2,520 Descending Boston Center
05:00PM 42.4661 -74.6664 82° East 477 549 19,400 -2,880 Descending Boston Center
05:00PM 42.4758 -74.5881 80° East 468 539 17,700 -3,900 Descending Boston Center
05:01PM 42.4864 -74.4700 83° East 477 549 15,500 -3,300 Descending Boston Center
05:01PM 42.4914 -74.4250 81° East 459 528 14,700 -3,540 Descending Boston Center
05:02PM 42.5017 -74.3072 83° East 457 526 12,000 -2,520 Descending Boston Center
05:03PM 42.5022 -74.1494 90° East 419 482 10,400 -1,140 Descending Boston Center
05:04PM 42.4958 -74.0169 94° East 377 434 9,800 -1,620 Descending Boston Center
05:05PM 42.4847 -73.9042 98° East 314 361 7,200 -2,520 Descending Boston Center
05:06PM 42.4736 -73.7911 98° East 293 337 4,800 -2,040 Descending Boston Center
05:07PM 42.5244 -73.7303 41° Northeast 252 290 2,900 -1,140 Descending Boston Center
05:08PM 42.5739 -73.7653 332° Northwest 184 212 2,600 -240 Descending Boston Center
05:09PM 42.6256 -73.8031 332° Northwest 193 222 2,500 -60 Descending Boston Center
05:10PM 42.6669 -73.8264 337° Northwest 184 212 2,500 -900 Level Boston Center
05:11PM 42.7236 -73.8081 13° North 138 159 600 -1,500 Descending Boston Center